createdAt,value
2018-05-01T00:00:40.857Z,999.41
2018-05-01T00:01:40.863Z,999.46
2018-05-01T00:02:40.851Z,999.40
2018-05-01T00:03:41.052Z,999.53
2018-05-01T00:04:40.851Z,999.56
2018-05-01T00:05:40.839Z,999.51
2018-05-01T00:06:40.845Z,999.53
2018-05-01T00:07:41.035Z,999.51
2018-05-01T00:08:40.838Z,999.53
2018-05-01T00:09:40.820Z,999.48
2018-05-01T00:10:41.022Z,999.50
2018-05-01T00:11:41.027Z,999.53
2018-05-01T00:12:40.813Z,999.53
2018-05-01T00:13:40.804Z,999.57
2018-05-01T00:14:40.814Z,999.48
2018-05-01T00:15:40.796Z,999.69
2018-05-01T00:16:40.792Z,999.56
2018-05-01T00:17:40.788Z,999.58
2018-05-01T00:18:40.788Z,999.63
2018-05-01T00:19:40.782Z,999.62
2018-05-01T00:20:40.775Z,999.65
2018-05-01T00:21:40.987Z,999.63
2018-05-01T00:22:40.972Z,999.67
2018-05-01T00:23:40.765Z,999.65
2018-05-01T00:24:40.965Z,999.61
2018-05-01T00:25:40.957Z,999.64
2018-05-01T00:26:40.752Z,999.62
2018-05-01T00:27:40.952Z,999.65
2018-05-01T00:28:40.744Z,999.67
2018-05-01T00:29:40.942Z,999.75
2018-05-01T00:30:40.735Z,999.64
2018-05-01T00:31:40.937Z,999.68
2018-05-01T00:32:40.746Z,999.68
2018-05-01T00:33:40.733Z,999.71
2018-05-01T00:34:40.718Z,999.76
2018-05-01T00:35:40.920Z,999.68
2018-05-01T00:36:40.714Z,999.70
2018-05-01T00:37:40.719Z,999.66
2018-05-01T00:38:40.702Z,999.83
2018-05-01T00:39:40.699Z,999.77
2018-05-01T00:40:40.691Z,999.75
2018-05-01T00:41:40.688Z,999.81
2018-05-01T00:42:40.701Z,999.77
2018-05-01T00:43:40.682Z,999.81
2018-05-01T00:44:40.675Z,999.83
2018-05-01T00:45:40.875Z,999.82
2018-05-01T00:46:40.668Z,999.80
2018-05-01T00:47:40.662Z,999.82
2018-05-01T00:48:40.662Z,999.83
2018-05-01T00:49:40.672Z,999.86
2018-05-01T00:50:40.653Z,999.86
2018-05-01T00:51:40.665Z,999.86
2018-05-01T00:52:40.652Z,999.91
2018-05-01T00:53:40.642Z,999.93
2018-05-01T00:54:40.652Z,999.91
2018-05-01T00:55:40.633Z,999.82
2018-05-01T00:56:40.626Z,999.82
2018-05-01T00:57:40.633Z,999.90
2018-05-01T00:58:40.618Z,999.92
2018-05-01T00:59:40.623Z,999.98
2018-05-01T01:00:40.611Z,999.87
2018-05-01T01:01:40.605Z,999.86
2018-05-01T01:02:40.600Z,999.93
2018-05-01T01:03:40.880Z,999.85
2018-05-01T01:04:40.819Z,999.94
2018-05-01T01:05:40.590Z,1000.00
2018-05-01T01:06:40.582Z,1000.00
2018-05-01T01:07:40.589Z,1000.03
2018-05-01T01:08:40.596Z,1000.04
2018-05-01T01:09:40.572Z,999.79
2018-05-01T01:10:40.568Z,1000.02
2018-05-01T01:11:40.567Z,1000.06
2018-05-01T01:12:40.560Z,1000.07
2018-05-01T01:13:40.568Z,1000.00
2018-05-01T01:14:40.551Z,1000.09
2018-05-01T01:15:40.749Z,1000.04
2018-05-01T01:16:40.553Z,1000.07
2018-05-01T01:17:40.550Z,1000.09
2018-05-01T01:18:40.738Z,1000.09
2018-05-01T01:19:40.531Z,1000.15
2018-05-01T01:20:40.525Z,1000.08
2018-05-01T01:21:40.531Z,1000.02
2018-05-01T01:22:40.519Z,1000.08
2018-05-01T01:23:40.524Z,1000.15
2018-05-01T01:24:40.716Z,1000.17
2018-05-01T01:25:40.710Z,1000.14
2018-05-01T01:26:40.706Z,1000.16
2018-05-01T01:27:40.509Z,1000.17
2018-05-01T01:28:40.492Z,1000.20
2018-05-01T01:29:40.498Z,1000.12
2018-05-01T01:30:40.690Z,1000.24
2018-05-01T01:31:40.685Z,1000.23
2018-05-01T01:32:40.476Z,1000.21
2018-05-01T01:33:40.481Z,1000.26
2018-05-01T01:34:40.468Z,1000.23
2018-05-01T01:35:40.474Z,1000.32
2018-05-01T01:36:40.456Z,1000.23
2018-05-01T01:37:40.461Z,1000.16
2018-05-01T01:38:40.450Z,1000.32
2018-05-01T01:39:40.445Z,1000.31
2018-05-01T01:40:40.655Z,1000.27
2018-05-01T01:41:40.651Z,1000.34
2018-05-01T01:42:40.432Z,1000.27
2018-05-01T01:43:40.428Z,1000.34
2018-05-01T01:44:40.627Z,1000.40
2018-05-01T01:45:40.640Z,1000.36
2018-05-01T01:46:40.427Z,1000.36
2018-05-01T01:47:40.431Z,1000.41
2018-05-01T01:48:40.420Z,1000.43
2018-05-01T01:49:40.407Z,1000.40
2018-05-01T01:50:40.399Z,1000.45
2018-05-01T01:51:40.403Z,1000.44
2018-05-01T01:52:40.391Z,1000.46
2018-05-01T01:53:40.604Z,1000.47
2018-05-01T01:54:40.382Z,1000.54
2018-05-01T01:55:40.392Z,1000.45
2018-05-01T01:56:40.577Z,1000.51
2018-05-01T01:57:40.379Z,1000.54
2018-05-01T01:58:40.377Z,1000.50
2018-05-01T01:59:40.370Z,1000.49
2018-05-01T02:00:40.558Z,1000.49
2018-05-01T02:01:40.363Z,1000.54
2018-05-01T02:02:40.358Z,1000.47
2018-05-01T02:03:40.353Z,1000.55
2018-05-01T02:04:40.335Z,1000.55
2018-05-01T02:05:40.331Z,1000.56
2018-05-01T02:06:40.331Z,1000.53
2018-05-01T02:07:40.536Z,1000.49
2018-05-01T02:08:40.330Z,1000.53
2018-05-01T02:09:40.340Z,1000.54
2018-05-01T02:10:40.516Z,1000.60
2018-05-01T02:11:40.510Z,1000.63
2018-05-01T02:12:40.299Z,1000.59
2018-05-01T02:13:40.296Z,1000.62
2018-05-01T02:14:40.497Z,1000.66
2018-05-01T02:15:40.301Z,1000.65
2018-05-01T02:16:40.298Z,1000.67
2018-05-01T02:17:40.280Z,1000.61
2018-05-01T02:18:40.281Z,1000.67
2018-05-01T02:19:40.268Z,1000.66
2018-05-01T02:20:40.272Z,1000.68
2018-05-01T02:21:40.259Z,1000.72
2018-05-01T02:22:40.459Z,1000.71
2018-05-01T02:23:40.454Z,1000.69
2018-05-01T02:24:40.248Z,1000.73
2018-05-01T02:25:40.238Z,1000.69
2018-05-01T02:26:40.235Z,1000.71
2018-05-01T02:27:40.229Z,1000.82
2018-05-01T02:28:40.429Z,1000.76
2018-05-01T02:29:40.225Z,1000.86
2018-05-01T02:30:40.230Z,1000.84
2018-05-01T02:31:40.213Z,1000.85
2018-05-01T02:32:40.211Z,1000.88
2018-05-01T02:33:40.454Z,1000.88
2018-05-01T02:34:40.404Z,1000.93
2018-05-01T02:35:40.208Z,1000.92
2018-05-01T02:36:40.404Z,1000.88
2018-05-01T02:37:40.389Z,1000.93
2018-05-01T02:38:40.634Z,1000.92
2018-05-01T02:39:40.380Z,1000.91
2018-05-01T02:40:40.185Z,1001.02
2018-05-01T02:41:40.391Z,1000.97
2018-05-01T02:42:40.164Z,1001.00
2018-05-01T02:43:40.162Z,1000.99
2018-05-01T02:44:40.359Z,1000.99
2018-05-01T02:45:40.155Z,1001.06
2018-05-01T02:46:40.151Z,1001.05
2018-05-01T02:47:40.140Z,1000.99
2018-05-01T02:48:40.340Z,1001.06
2018-05-01T02:49:40.144Z,1001.12
2018-05-01T02:50:40.125Z,1001.14
2018-05-01T02:51:40.122Z,1001.06
2018-05-01T02:52:40.330Z,1001.10
2018-05-01T02:53:40.136Z,1001.03
2018-05-01T02:54:40.108Z,1001.11
2018-05-01T02:55:40.101Z,1001.12
2018-05-01T02:56:40.102Z,1001.10
2018-05-01T02:57:40.300Z,1001.13
2018-05-01T02:58:40.089Z,1001.18
2018-05-01T02:59:40.086Z,1001.12
2018-05-01T03:00:40.087Z,1001.18
2018-05-01T03:01:40.077Z,1001.22
2018-05-01T03:02:40.072Z,1001.18
2018-05-01T03:03:40.065Z,1001.11
2018-05-01T03:04:40.070Z,1001.18
2018-05-01T03:05:40.061Z,1001.18
2018-05-01T03:06:40.256Z,1001.18
2018-05-01T03:07:40.049Z,1001.22
2018-05-01T03:08:40.045Z,1001.17
2018-05-01T03:09:40.165Z,1001.20
2018-05-01T03:10:40.239Z,1001.27
2018-05-01T03:11:40.034Z,1001.20
2018-05-01T03:12:40.024Z,1001.28
2018-05-01T03:13:40.018Z,1001.23
2018-05-01T03:14:40.019Z,1001.28
2018-05-01T03:15:40.031Z,1001.25
2018-05-01T03:16:40.007Z,1001.26
2018-05-01T03:17:40.011Z,1001.27
2018-05-01T03:18:40.223Z,1001.32
2018-05-01T03:19:40.012Z,1001.36
2018-05-01T03:20:39.997Z,1001.25
2018-05-01T03:21:40.186Z,1001.29
2018-05-01T03:22:39.989Z,1001.31
2018-05-01T03:23:40.185Z,1001.29
2018-05-01T03:24:39.968Z,1001.38
2018-05-01T03:25:40.181Z,1001.34
2018-05-01T03:26:39.974Z,1001.34
2018-05-01T03:27:39.956Z,1001.34
2018-05-01T03:28:39.965Z,1001.33
2018-05-01T03:29:39.956Z,1001.39
2018-05-01T03:30:39.945Z,1001.39
2018-05-01T03:31:40.144Z,1001.43
2018-05-01T03:32:39.932Z,1001.41
2018-05-01T03:33:39.927Z,1001.46
2018-05-01T03:34:40.136Z,1001.43
2018-05-01T03:35:40.134Z,1001.47
2018-05-01T03:36:39.914Z,1001.40
2018-05-01T03:37:40.126Z,1001.43
2018-05-01T03:38:39.905Z,1001.46
2018-05-01T03:39:39.898Z,1001.54
2018-05-01T03:40:39.894Z,1001.50
2018-05-01T03:41:39.890Z,1001.38
2018-05-01T03:42:39.894Z,1001.51
2018-05-01T03:43:39.890Z,1001.50
2018-05-01T03:44:39.878Z,1001.51
2018-05-01T03:45:39.879Z,1001.50
2018-05-01T03:46:39.877Z,1001.54
2018-05-01T03:47:39.861Z,1001.56
2018-05-01T03:48:39.861Z,1001.54
2018-05-01T03:49:40.053Z,1001.56
2018-05-01T03:50:39.848Z,1001.60
2018-05-01T03:51:39.846Z,1001.57
2018-05-01T03:52:39.837Z,1001.57
2018-05-01T03:53:39.838Z,1001.58
2018-05-01T03:54:39.826Z,1001.59
2018-05-01T03:55:39.822Z,1001.61
2018-05-01T03:56:41.241Z,1001.60
2018-05-01T03:57:39.813Z,1001.62
2018-05-01T03:58:39.822Z,1001.65
2018-05-01T03:59:39.806Z,1001.69
2018-05-01T04:00:40.010Z,1001.64
2018-05-01T04:01:39.800Z,1001.70
2018-05-01T04:02:39.788Z,1001.70
2018-05-01T04:03:39.782Z,1001.66
2018-05-01T04:04:39.790Z,1001.80
2018-05-01T04:05:39.775Z,1001.72
2018-05-01T04:06:39.971Z,1001.73
2018-05-01T04:07:39.777Z,1001.75
2018-05-01T04:08:39.757Z,1001.77
2018-05-01T04:09:39.754Z,1001.77
2018-05-01T04:10:39.752Z,1001.83
2018-05-01T04:11:39.743Z,1001.84
2018-05-01T04:12:39.943Z,1001.84
2018-05-01T04:13:39.734Z,1001.87
2018-05-01T04:14:39.729Z,1001.88
2018-05-01T04:15:39.735Z,1001.90
2018-05-01T04:16:39.720Z,1001.91
2018-05-01T04:17:39.714Z,1001.94
2018-05-01T04:18:39.720Z,1001.90
2018-05-01T04:19:39.706Z,1001.97
2018-05-01T04:20:39.720Z,1001.99
2018-05-01T04:21:39.707Z,1001.97
2018-05-01T04:22:39.695Z,1001.92
2018-05-01T04:23:39.686Z,1002.03
2018-05-01T04:24:39.680Z,1002.02
2018-05-01T04:25:39.679Z,1002.06
2018-05-01T04:26:39.885Z,1002.02
2018-05-01T04:27:39.670Z,1002.03
2018-05-01T04:28:39.660Z,1002.03
2018-05-01T04:29:39.665Z,1002.03
2018-05-01T04:30:39.663Z,1002.07
2018-05-01T04:31:39.646Z,1002.06
2018-05-01T04:32:39.645Z,1002.14
2018-05-01T04:33:39.638Z,1002.16
2018-05-01T04:34:39.657Z,1002.08
2018-05-01T04:35:39.630Z,1002.20
2018-05-01T04:36:39.624Z,1002.20
2018-05-01T04:37:39.620Z,1002.14
2018-05-01T04:38:39.615Z,1002.30
2018-05-01T04:39:39.653Z,1002.29
2018-05-01T04:40:39.616Z,1002.40
2018-05-01T04:41:39.601Z,1002.38
2018-05-01T04:42:39.593Z,1002.33
2018-05-01T04:43:39.606Z,1002.38
2018-05-01T04:44:39.595Z,1002.40
2018-05-01T04:45:39.581Z,1002.45
2018-05-01T04:46:39.576Z,1002.43
2018-05-01T04:47:39.580Z,1002.52
2018-05-01T04:48:39.575Z,1002.49
2018-05-01T04:49:39.561Z,1002.50
2018-05-01T04:50:39.570Z,1002.52
2018-05-01T04:51:39.639Z,1002.56
2018-05-01T04:52:39.557Z,1002.59
2018-05-01T04:53:39.540Z,1002.62
2018-05-01T04:54:39.751Z,1002.55
2018-05-01T04:55:39.541Z,1002.68
2018-05-01T04:56:39.537Z,1002.67
2018-05-01T04:57:39.523Z,1002.67
2018-05-01T04:58:39.534Z,1002.66
2018-05-01T04:59:39.530Z,1002.68
2018-05-01T05:00:39.726Z,1002.69
2018-05-01T05:01:39.516Z,1002.77
2018-05-01T05:02:39.509Z,1002.70
2018-05-01T05:03:39.502Z,1002.75
2018-05-01T05:04:39.696Z,1002.74
2018-05-01T05:05:39.486Z,1002.79
2018-05-01T05:06:39.493Z,1002.73
2018-05-01T05:07:39.481Z,1002.83
2018-05-01T05:08:39.478Z,1002.81
2018-05-01T05:09:39.463Z,1002.87
2018-05-01T05:10:39.661Z,1002.92
2018-05-01T05:11:39.453Z,1002.87
2018-05-01T05:12:39.446Z,1002.97
2018-05-01T05:13:39.455Z,1002.92
2018-05-01T05:14:39.643Z,1002.91
2018-05-01T05:15:39.696Z,1003.01
2018-05-01T05:16:39.430Z,1003.00
2018-05-01T05:17:39.424Z,1003.01
2018-05-01T05:18:39.430Z,1003.09
2018-05-01T05:19:39.413Z,1003.02
2018-05-01T05:20:39.409Z,1003.10
2018-05-01T05:21:39.407Z,1003.13
2018-05-01T05:22:39.399Z,1003.13
2018-05-01T05:23:39.396Z,1003.19
2018-05-01T05:24:39.593Z,1003.15
2018-05-01T05:25:39.384Z,1003.16
2018-05-01T05:26:39.582Z,1003.24
2018-05-01T05:27:39.376Z,1003.25
2018-05-01T05:28:39.370Z,1003.31
2018-05-01T05:29:39.376Z,1003.27
2018-05-01T05:30:39.361Z,1003.30
2018-05-01T05:31:39.366Z,1003.30
2018-05-01T05:32:39.355Z,1003.33
2018-05-01T05:33:39.345Z,1003.30
2018-05-01T05:34:39.546Z,1003.40
2018-05-01T05:35:39.341Z,1003.41
2018-05-01T05:36:39.550Z,1003.45
2018-05-01T05:37:39.328Z,1003.45
2018-05-01T05:38:39.335Z,1003.53
2018-05-01T05:39:39.521Z,1003.51
2018-05-01T05:40:39.329Z,1003.54
2018-05-01T05:41:39.310Z,1003.54
2018-05-01T05:42:39.310Z,1003.55
2018-05-01T05:43:39.308Z,1003.49
2018-05-01T05:44:39.294Z,1003.55
2018-05-01T05:45:39.291Z,1003.57
2018-05-01T05:46:39.287Z,1003.59
2018-05-01T05:47:39.283Z,1003.58
2018-05-01T05:48:39.282Z,1003.74
2018-05-01T05:49:39.476Z,1003.57
2018-05-01T05:50:39.472Z,1003.59
2018-05-01T05:51:39.469Z,1003.62
2018-05-01T05:52:39.261Z,1003.69
2018-05-01T05:53:39.262Z,1003.69
2018-05-01T05:54:39.250Z,1003.67
2018-05-01T05:55:39.245Z,1003.74
2018-05-01T05:56:39.250Z,1003.69
2018-05-01T05:57:39.239Z,1003.69
2018-05-01T05:58:39.230Z,1003.74
2018-05-01T05:59:39.233Z,1003.72
2018-05-01T06:00:39.217Z,1003.81
2018-05-01T06:01:39.217Z,1003.82
2018-05-01T06:02:39.209Z,1003.80
2018-05-01T06:03:39.215Z,1003.87
2018-05-01T06:04:39.401Z,1003.89
2018-05-01T06:05:39.205Z,1003.85
2018-05-01T06:06:39.394Z,1003.88
2018-05-01T06:07:39.206Z,1003.88
2018-05-01T06:08:39.182Z,1003.92
2018-05-01T06:09:39.385Z,1003.99
2018-05-01T06:10:39.172Z,1003.94
2018-05-01T06:11:39.165Z,1003.96
2018-05-01T06:12:39.368Z,1003.97
2018-05-01T06:13:39.233Z,1003.98
2018-05-01T06:14:39.157Z,1004.00
2018-05-01T06:15:39.154Z,1003.97
2018-05-01T06:16:39.142Z,1003.97
2018-05-01T06:17:39.142Z,1004.00
2018-05-01T06:18:39.142Z,1003.98
2018-05-01T06:19:39.133Z,1003.99
2018-05-01T06:20:39.124Z,1003.99
2018-05-01T06:21:39.119Z,1004.03
2018-05-01T06:22:39.117Z,1004.05
2018-05-01T06:23:39.122Z,1004.04
2018-05-01T06:24:39.311Z,1004.08
2018-05-01T06:25:39.318Z,1004.09
2018-05-01T06:26:39.097Z,1004.12
2018-05-01T06:27:39.090Z,1004.14
2018-05-01T06:28:39.087Z,1004.16
2018-05-01T06:29:39.085Z,1004.15
2018-05-01T06:30:39.078Z,1004.19
2018-05-01T06:31:39.083Z,1004.26
2018-05-01T06:32:39.069Z,1004.34
2018-05-01T06:33:39.086Z,1004.27
2018-05-01T06:34:39.285Z,1004.33
2018-05-01T06:35:39.055Z,1004.34
2018-05-01T06:36:39.058Z,1004.29
2018-05-01T06:37:39.047Z,1004.39
2018-05-01T06:38:39.052Z,1004.34
2018-05-01T06:39:39.040Z,1004.38
2018-05-01T06:40:39.034Z,1004.36
2018-05-01T06:41:39.039Z,1004.32
2018-05-01T06:42:39.033Z,1004.36
2018-05-01T06:43:39.032Z,1004.39
2018-05-01T06:44:39.218Z,1004.37
2018-05-01T06:45:39.232Z,1004.37
2018-05-01T06:46:39.014Z,1004.38
2018-05-01T06:47:39.012Z,1004.40
2018-05-01T06:48:39.006Z,1004.39
2018-05-01T06:49:39.198Z,1004.50
2018-05-01T06:50:39.022Z,1004.44
2018-05-01T06:51:38.995Z,1004.46
2018-05-01T06:52:38.978Z,1004.56
2018-05-01T06:53:38.981Z,1004.50
2018-05-01T06:54:38.967Z,1004.52
2018-05-01T06:55:38.972Z,1004.55
2018-05-01T06:56:39.174Z,1004.56
2018-05-01T06:57:38.977Z,1004.52
2018-05-01T06:58:38.961Z,1004.56
2018-05-01T06:59:39.162Z,1004.65
2018-05-01T07:00:38.939Z,1004.76
2018-05-01T07:01:39.149Z,1004.69
2018-05-01T07:02:38.930Z,1004.77
2018-05-01T07:03:39.145Z,1004.75
2018-05-01T07:04:39.164Z,1004.82
2018-05-01T07:05:38.928Z,1004.74
2018-05-01T07:06:38.914Z,1004.72
2018-05-01T07:07:38.920Z,1004.80
2018-05-01T07:08:38.904Z,1004.82
2018-05-01T07:09:38.917Z,1004.83
2018-05-01T07:10:39.113Z,1004.79
2018-05-01T07:11:38.911Z,1004.89
2018-05-01T07:12:38.888Z,1004.87
2018-05-01T07:13:39.096Z,1004.85
2018-05-01T07:14:38.880Z,1004.86
2018-05-01T07:15:39.097Z,1004.94
2018-05-01T07:16:38.874Z,1004.93
2018-05-01T07:17:38.866Z,1004.97
2018-05-01T07:18:39.076Z,1005.02
2018-05-01T07:19:38.860Z,1005.01
2018-05-01T07:20:38.852Z,1004.93
2018-05-01T07:21:38.858Z,1005.12
2018-05-01T07:22:38.856Z,1005.01
2018-05-01T07:23:39.052Z,1005.01
2018-05-01T07:24:39.051Z,1005.16
2018-05-01T07:25:38.836Z,1004.96
2018-05-01T07:26:38.828Z,1005.17
2018-05-01T07:27:38.825Z,1005.14
2018-05-01T07:28:39.026Z,1004.95
2018-05-01T07:29:38.819Z,1005.12
2018-05-01T07:30:39.045Z,1005.34
2018-05-01T07:31:38.813Z,1005.25
2018-05-01T07:32:38.820Z,1005.21
2018-05-01T07:33:39.010Z,1005.22
2018-05-01T07:34:38.813Z,1005.21
2018-05-01T07:35:38.895Z,1005.20
2018-05-01T07:36:38.807Z,1005.23
2018-05-01T07:37:38.796Z,1005.22
2018-05-01T07:38:38.799Z,1005.21
2018-05-01T07:39:38.786Z,1005.24
2018-05-01T07:40:38.792Z,1005.19
2018-05-01T07:41:39.175Z,1005.15
2018-05-01T07:42:38.777Z,1005.23
2018-05-01T07:43:38.784Z,1005.28
2018-05-01T07:44:38.771Z,1005.27
2018-05-01T07:45:38.780Z,1005.24
2018-05-01T07:46:38.764Z,1005.18
2018-05-01T07:47:38.788Z,1005.22
2018-05-01T07:48:38.972Z,1005.18
2018-05-01T07:49:38.752Z,1005.26
2018-05-01T07:50:38.750Z,1005.25
2018-05-01T07:51:38.754Z,1005.39
2018-05-01T07:52:38.967Z,1005.28
2018-05-01T07:53:38.952Z,1005.52
2018-05-01T07:54:38.957Z,1005.28
2018-05-01T07:55:38.742Z,1005.51
2018-05-01T07:56:38.826Z,1005.45
2018-05-01T07:57:38.737Z,1005.61
2018-05-01T07:58:38.932Z,1005.50
2018-05-01T07:59:38.938Z,1005.29
2018-05-01T08:00:38.718Z,1005.33
2018-05-01T08:01:38.719Z,1005.44
2018-05-01T08:02:38.916Z,1005.39
2018-05-01T08:03:38.926Z,1005.38
2018-05-01T08:04:38.712Z,1005.37
2018-05-01T08:05:38.704Z,1005.40
2018-05-01T08:06:38.705Z,1005.44
2018-05-01T08:07:38.699Z,1005.49
2018-05-01T08:08:38.693Z,1005.36
2018-05-01T08:09:38.910Z,1005.37
2018-05-01T08:10:38.691Z,1005.44
2018-05-01T08:11:38.904Z,1005.44
2018-05-01T08:12:38.684Z,1005.43
2018-05-01T08:13:38.679Z,1005.50
2018-05-01T08:14:38.881Z,1005.51
2018-05-01T08:15:38.686Z,1005.47
2018-05-01T08:16:38.885Z,1005.51
2018-05-01T08:17:38.699Z,1005.57
2018-05-01T08:18:38.737Z,1005.52
2018-05-01T08:19:38.665Z,1005.48
2018-05-01T08:20:38.659Z,1005.49
2018-05-01T08:21:38.871Z,1005.64
2018-05-01T08:22:38.653Z,1005.52
2018-05-01T08:23:38.648Z,1005.54
2018-05-01T08:24:38.861Z,1005.49
2018-05-01T08:25:38.641Z,1005.51
2018-05-01T08:26:38.654Z,1005.60
2018-05-01T08:27:38.657Z,1005.61
2018-05-01T08:28:38.836Z,1005.68
2018-05-01T08:29:38.628Z,1005.59
2018-05-01T08:30:38.674Z,1005.62
2018-05-01T08:31:38.618Z,1005.56
2018-05-01T08:32:38.629Z,1005.60
2018-05-01T08:33:38.613Z,1005.53
2018-05-01T08:34:38.612Z,1005.55
2018-05-01T08:35:38.809Z,1005.55
2018-05-01T08:36:38.605Z,1005.55
2018-05-01T08:37:38.664Z,1005.58
2018-05-01T08:38:38.812Z,1005.77
2018-05-01T08:39:38.601Z,1005.78
2018-05-01T08:40:38.589Z,1005.70
2018-05-01T08:41:38.790Z,1005.69
2018-05-01T08:42:38.581Z,1005.73
2018-05-01T08:43:38.577Z,1005.72
2018-05-01T08:44:38.789Z,1005.83
2018-05-01T08:45:38.785Z,1005.78
2018-05-01T08:46:38.587Z,1005.98
2018-05-01T08:47:38.562Z,1006.02
2018-05-01T08:48:38.559Z,1005.85
2018-05-01T08:49:38.557Z,1005.96
2018-05-01T08:50:38.568Z,1005.88
2018-05-01T08:51:38.756Z,1005.98
2018-05-01T08:52:38.559Z,1005.95
2018-05-01T08:53:38.546Z,1006.05
2018-05-01T08:54:38.551Z,1006.00
2018-05-01T08:55:38.563Z,1006.00
2018-05-01T08:56:38.543Z,1006.01
2018-05-01T08:57:38.531Z,1006.15
2018-05-01T08:58:38.527Z,1006.10
2018-05-01T08:59:38.537Z,1005.96
2018-05-01T09:00:38.522Z,1006.03
2018-05-01T09:01:38.721Z,1006.06
2018-05-01T09:02:38.729Z,1006.10
2018-05-01T09:03:38.718Z,1005.99
2018-05-01T09:04:38.504Z,1006.20
2018-05-01T09:05:38.512Z,1006.06
2018-05-01T09:06:38.525Z,1006.13
2018-05-01T09:07:38.496Z,1006.07
2018-05-01T09:08:38.523Z,1006.00
2018-05-01T09:09:38.688Z,1005.97
2018-05-01T09:10:38.486Z,1006.00
2018-05-01T09:11:38.482Z,1006.07
2018-05-01T09:12:38.480Z,1006.12
2018-05-01T09:13:38.477Z,1006.04
2018-05-01T09:14:38.691Z,1006.05
2018-05-01T09:15:38.468Z,1006.13
2018-05-01T09:16:38.467Z,1006.11
2018-05-01T09:17:38.680Z,1006.06
2018-05-01T09:18:38.469Z,1006.14
2018-05-01T09:19:38.456Z,1006.10
2018-05-01T09:20:38.461Z,1006.05
2018-05-01T09:21:38.661Z,1006.10
2018-05-01T09:22:38.446Z,1006.07
2018-05-01T09:23:38.644Z,1006.10
2018-05-01T09:24:38.435Z,1006.12
2018-05-01T09:25:38.525Z,1006.07
2018-05-01T09:26:38.452Z,1006.13
2018-05-01T09:27:38.424Z,1006.23
2018-05-01T09:28:38.432Z,1006.15
2018-05-01T09:29:38.422Z,1006.14
2018-05-01T09:30:38.424Z,1006.15
2018-05-01T09:31:38.412Z,1006.17
2018-05-01T09:32:38.418Z,1006.16
2018-05-01T09:33:38.407Z,1006.32
2018-05-01T09:34:38.400Z,1006.18
2018-05-01T09:35:38.412Z,1006.18
2018-05-01T09:36:38.393Z,1006.18
2018-05-01T09:37:38.388Z,1006.20
2018-05-01T09:38:38.400Z,1006.20
2018-05-01T09:39:38.405Z,1006.14
2018-05-01T09:40:38.389Z,1006.18
2018-05-01T09:41:38.375Z,1006.21
2018-05-01T09:42:38.376Z,1006.14
2018-05-01T09:43:38.368Z,1006.19
2018-05-01T09:44:38.366Z,1006.23
2018-05-01T09:45:38.365Z,1006.24
2018-05-01T09:46:38.359Z,1006.24
2018-05-01T09:47:38.459Z,1006.27
2018-05-01T09:48:38.370Z,1006.23
2018-05-01T09:49:38.376Z,1006.27
2018-05-01T09:50:38.344Z,1006.31
2018-05-01T09:51:38.337Z,1006.30
2018-05-01T09:52:38.337Z,1006.30
2018-05-01T09:53:38.333Z,1006.35
2018-05-01T09:54:38.329Z,1006.30
2018-05-01T09:55:38.326Z,1006.39
2018-05-01T09:56:38.321Z,1006.36
2018-05-01T09:57:38.532Z,1006.40
2018-05-01T09:58:38.333Z,1006.46
2018-05-01T09:59:38.540Z,1006.38
2018-05-01T10:00:38.334Z,1006.47
2018-05-01T10:01:38.319Z,1006.56
2018-05-01T10:02:38.300Z,1006.47
2018-05-01T10:03:38.296Z,1006.46
2018-05-01T10:04:38.293Z,1006.47
2018-05-01T10:05:38.494Z,1006.44
2018-05-01T10:06:38.284Z,1006.45
2018-05-01T10:07:38.281Z,1006.42
2018-05-01T10:08:38.279Z,1006.37
2018-05-01T10:09:38.276Z,1006.40
2018-05-01T10:10:38.274Z,1006.49
2018-05-01T10:11:38.267Z,1006.50
2018-05-01T10:12:38.267Z,1006.49
2018-05-01T10:13:38.273Z,1006.50
2018-05-01T10:14:38.257Z,1006.49
2018-05-01T10:15:38.252Z,1006.52
2018-05-01T10:16:38.252Z,1006.50
2018-05-01T10:17:38.258Z,1006.47
2018-05-01T10:18:38.255Z,1006.53
2018-05-01T10:19:38.250Z,1006.60
2018-05-01T10:20:38.247Z,1006.57
2018-05-01T10:21:38.248Z,1006.54
2018-05-01T10:22:38.432Z,1006.54
2018-05-01T10:23:38.239Z,1006.50
2018-05-01T10:24:38.225Z,1006.51
2018-05-01T10:25:38.220Z,1006.54
2018-05-01T10:26:38.419Z,1006.48
2018-05-01T10:27:38.215Z,1006.58
2018-05-01T10:28:38.287Z,1006.58
2018-05-01T10:29:38.224Z,1006.58
2018-05-01T10:30:38.203Z,1006.58
2018-05-01T10:31:38.198Z,1006.58
2018-05-01T10:32:38.196Z,1006.57
2018-05-01T10:33:38.205Z,1006.63
2018-05-01T10:34:38.189Z,1006.57
2018-05-01T10:35:38.197Z,1006.60
2018-05-01T10:36:38.185Z,1006.61
2018-05-01T10:37:38.178Z,1006.57
2018-05-01T10:38:38.190Z,1006.58
2018-05-01T10:39:38.176Z,1006.66
2018-05-01T10:40:38.172Z,1006.65
2018-05-01T10:41:38.167Z,1006.66
2018-05-01T10:42:38.173Z,1006.70
2018-05-01T10:43:38.169Z,1006.74
2018-05-01T10:44:38.154Z,1006.70
2018-05-01T10:45:38.245Z,1006.69
2018-05-01T10:46:38.150Z,1006.80
2018-05-01T10:47:38.154Z,1006.74
2018-05-01T10:48:38.157Z,1006.76
2018-05-01T10:49:38.149Z,1006.72
2018-05-01T10:50:38.159Z,1006.77
2018-05-01T10:51:38.146Z,1006.77
2018-05-01T10:52:38.333Z,1006.76
2018-05-01T10:53:38.125Z,1006.76
2018-05-01T10:54:38.215Z,1006.75
2018-05-01T10:55:38.120Z,1006.79
2018-05-01T10:56:38.139Z,1006.77
2018-05-01T10:57:38.114Z,1006.86
2018-05-01T10:58:38.122Z,1006.83
2018-05-01T10:59:38.311Z,1006.86
2018-05-01T11:00:38.356Z,1006.82
2018-05-01T11:01:38.101Z,1006.80
2018-05-01T11:02:38.299Z,1006.77
2018-05-01T11:03:38.095Z,1006.79
2018-05-01T11:04:38.091Z,1006.79
2018-05-01T11:05:38.087Z,1006.86
2018-05-01T11:06:38.299Z,1006.84
2018-05-01T11:07:38.101Z,1006.86
2018-05-01T11:08:38.283Z,1006.85
2018-05-01T11:09:38.074Z,1006.86
2018-05-01T11:10:38.083Z,1006.89
2018-05-01T11:11:38.071Z,1006.82
2018-05-01T11:12:38.064Z,1006.88
2018-05-01T11:13:38.066Z,1006.93
2018-05-01T11:14:38.063Z,1006.89
2018-05-01T11:15:38.072Z,1006.85
2018-05-01T11:16:38.054Z,1006.91
2018-05-01T11:17:38.049Z,1006.92
2018-05-01T11:18:38.048Z,1006.95
2018-05-01T11:19:38.049Z,1006.95
2018-05-01T11:20:38.042Z,1006.95
2018-05-01T11:21:38.053Z,1007.04
2018-05-01T11:22:38.240Z,1007.01
2018-05-01T11:23:38.044Z,1007.04
2018-05-01T11:24:38.066Z,1007.05
2018-05-01T11:25:38.027Z,1007.05
2018-05-01T11:26:38.040Z,1007.02
2018-05-01T11:27:38.030Z,1007.00
2018-05-01T11:28:38.104Z,1006.98
2018-05-01T11:29:38.026Z,1006.98
2018-05-01T11:30:38.011Z,1007.01
2018-05-01T11:31:38.023Z,1006.99
2018-05-01T11:32:38.236Z,1007.03
2018-05-01T11:33:38.060Z,1007.08
2018-05-01T11:34:38.012Z,1007.07
2018-05-01T11:35:38.211Z,1007.06
2018-05-01T11:36:38.007Z,1007.06
2018-05-01T11:37:38.017Z,1007.16
2018-05-01T11:38:38.004Z,1007.12
2018-05-01T11:39:38.202Z,1007.07
2018-05-01T11:40:37.982Z,1007.07
2018-05-01T11:41:38.000Z,1007.11
2018-05-01T11:42:38.191Z,1007.09
2018-05-01T11:43:37.973Z,1007.06
2018-05-01T11:44:37.973Z,1007.07
2018-05-01T11:45:37.975Z,1007.14
2018-05-01T11:46:37.980Z,1007.13
2018-05-01T11:47:37.963Z,1007.11
2018-05-01T11:48:37.960Z,1007.13
2018-05-01T11:49:37.974Z,1007.08
2018-05-01T11:50:37.956Z,1007.17
2018-05-01T11:51:37.973Z,1007.11
2018-05-01T11:52:37.963Z,1007.19
2018-05-01T11:53:37.952Z,1007.14
2018-05-01T11:54:37.969Z,1007.10
2018-05-01T11:55:37.941Z,1007.07
2018-05-01T11:56:37.939Z,1007.03
2018-05-01T11:57:37.948Z,1007.01
2018-05-01T11:58:37.939Z,1007.03
2018-05-01T11:59:37.935Z,1007.14
2018-05-01T12:00:37.938Z,1007.14
2018-05-01T12:01:37.937Z,1007.14
2018-05-01T12:02:37.958Z,1007.11
2018-05-01T12:03:37.925Z,1007.14
2018-05-01T12:04:37.917Z,1007.12
2018-05-01T12:05:37.915Z,1007.09
2018-05-01T12:06:37.922Z,1007.08
2018-05-01T12:07:37.908Z,1007.11